Time;durP1;ratioP1;P1;durP2;ratioP2;P2;SDS_P1;SDS_P2;PMS_P1;PMS_P2;Temp;Humidity;BMP_temperature;BMP_pressure;BME280_temperature;BME280_humidity;BME280_pressure;Samples;Min_cycle;Max_cycle;Signal;HPM_P1;HPM_P2
2023/11/25 00:00:44;;;;;;;4.53;2.87;;;;;;;;;;6223779;23;20423;-87
2023/11/25 00:03:14;;;;;;;6.20;2.53;;;;;;;;;;6219418;23;20416;-86
2023/11/25 00:05:45;;;;;;;7.50;2.37;;;;;;;;;;6243732;23;20377;-84
2023/11/25 00:08:19;;;;;;;6.57;2.60;;;;;;;;;;6217364;23;20444;-85
2023/11/25 00:10:55;;;;;;;3.60;2.00;;;;;;;;;;6242134;23;21331;-86
2023/11/25 00:13:35;;;;;;;7.33;4.07;;;;;;;;;;6219513;23;20422;-85
2023/11/25 00:16:15;;;;;;;6.30;2.70;;;;;;;;;;6217223;23;20408;-85
2023/11/25 00:18:54;;;;;;;4.10;2.47;;;;;;;;;;6218406;23;20444;-83
2023/11/25 00:21:28;;;;;;;3.50;2.37;;;;;;;;;;6216431;23;20408;-85
2023/11/25 00:24:12;;;;;;;6.00;2.13;;;;;;;;;;6241626;23;20443;-86
2023/11/25 00:26:42;;;;;;;2.77;1.90;;;;;;;;;;6227642;23;20663;-85
2023/11/25 00:29:17;;;;;;;2.20;1.73;;;;;;;;;;6221607;23;20436;-85
2023/11/25 00:31:54;;;;;;;4.93;1.93;;;;;;;;;;6249797;23;21060;-87
2023/11/25 00:34:31;;;;;;;4.37;2.27;;;;;;;;;;6222822;23;20491;-84
2023/11/25 00:37:09;;;;;;;3.40;1.80;;;;;;;;;;6225740;23;20414;-83
2023/11/25 00:39:38;;;;;;;7.10;1.80;;;;;;;;;;6223135;23;20424;-86
2023/11/25 00:42:14;;;;;;;3.77;1.60;;;;;;;;;;6223635;23;20407;-85
2023/11/25 00:45:04;;;;;;;4.03;1.70;;;;;;;;;;6219905;23;20396;-85
2023/11/25 00:47:36;;;;;;;6.00;1.83;;;;;;;;;;6224623;22;20446;-85
2023/11/25 00:50:07;;;;;;;8.47;2.30;;;;;;;;;;6250360;23;20416;-87
2023/11/25 00:52:34;;;;;;;2.87;1.27;;;;;;;;;;6248086;23;20888;-84
2023/11/25 00:55:10;;;;;;;5.00;1.73;;;;;;;;;;6247655;23;20657;-84
2023/11/25 00:57:40;;;;;;;4.07;1.43;;;;;;;;;;6227810;22;20419;-84
2023/11/25 01:00:25;;;;;;;2.87;1.73;;;;;;;;;;6231207;23;20392;-84
2023/11/25 01:02:56;;;;;;;3.90;2.00;;;;;;;;;;6250748;23;20412;-86
2023/11/25 01:05:32;;;;;;;4.70;1.37;;;;;;;;;;6196120;23;20439;-85
2023/11/25 01:08:11;;;;;;;6.03;2.30;;;;;;;;;;6226793;23;20432;-85
2023/11/25 01:10:45;;;;;;;4.83;1.30;;;;;;;;;;6225985;23;20388;-84
2023/11/25 01:13:15;;;;;;;3.70;1.60;;;;;;;;;;6223829;23;20420;-85
2023/11/25 01:15:45;;;;;;;5.50;1.97;;;;;;;;;;6223476;23;20652;-85
2023/11/25 01:18:18;;;;;;;4.97;2.07;;;;;;;;;;6226591;23;20447;-87
2023/11/25 01:20:55;;;;;;;4.90;1.60;;;;;;;;;;6230548;23;20392;-86
2023/11/25 01:23:33;;;;;;;6.07;1.30;;;;;;;;;;6227201;23;20418;-86
2023/11/25 01:26:12;;;;;;;7.40;1.40;;;;;;;;;;6222567;23;20400;-83
2023/11/25 01:28:42;;;;;;;2.33;1.37;;;;;;;;;;6216156;22;20444;-84
2023/11/25 01:31:21;;;;;;;3.63;1.40;;;;;;;;;;6255692;22;20401;-85
2023/11/25 01:34:07;;;;;;;3.13;1.50;;;;;;;;;;6250371;23;20993;-84
2023/11/25 01:36:57;;;;;;;6.13;1.50;;;;;;;;;;6245864;23;20429;-84
2023/11/25 01:39:43;;;;;;;5.40;2.20;;;;;;;;;;6224674;23;20475;-85
2023/11/25 01:42:18;;;;;;;2.67;1.60;;;;;;;;;;6220662;23;20393;-84
2023/11/25 01:44:52;;;;;;;5.93;2.07;;;;;;;;;;6221738;23;20393;-85
2023/11/25 01:47:22;;;;;;;4.90;2.50;;;;;;;;;;6216457;23;20409;-85
2023/11/25 01:49:53;;;;;;;4.83;2.50;;;;;;;;;;6217880;23;20421;-84
2023/11/25 01:52:22;;;;;;;7.27;1.63;;;;;;;;;;6217376;23;20444;-84
2023/11/25 01:54:53;;;;;;;7.27;1.93;;;;;;;;;;6216969;23;20423;-82
2023/11/25 01:57:29;;;;;;;3.90;1.43;;;;;;;;;;6222877;23;20397;-84
2023/11/25 02:00:09;;;;;;;10.80;2.07;;;;;;;;;;6222648;23;20415;-85
2023/11/25 02:02:40;;;;;;;7.37;2.50;;;;;;;;;;6222053;23;20402;-83
2023/11/25 02:05:12;;;;;;;6.80;1.80;;;;;;;;;;6223966;23;20432;-86
2023/11/25 02:07:47;;;;;;;4.40;2.07;;;;;;;;;;6222728;23;20455;-86
2023/11/25 02:10:16;;;;;;;5.20;2.03;;;;;;;;;;6225251;23;20409;-83
2023/11/25 02:12:55;;;;;;;6.90;1.97;;;;;;;;;;6226161;23;20429;-87
2023/11/25 02:15:30;;;;;;;5.73;2.50;;;;;;;;;;6221064;23;20409;-85
2023/11/25 02:18:03;;;;;;;7.47;2.57;;;;;;;;;;6218170;23;20460;-85
2023/11/25 02:20:45;;;;;;;8.77;2.10;;;;;;;;;;6223405;23;20393;-86
2023/11/25 02:23:39;;;;;;;7.07;2.07;;;;;;;;;;6223905;23;20472;-83
2023/11/25 02:26:13;;;;;;;4.07;1.87;;;;;;;;;;6222619;23;20412;-85
2023/11/25 02:29:01;;;;;;;7.17;2.03;;;;;;;;;;6223571;23;20853;-86
2023/11/25 02:31:54;;;;;;;6.87;2.10;;;;;;;;;;6216607;23;20405;-81
2023/11/25 02:34:31;;;;;;;3.80;1.70;;;;;;;;;;6213479;23;20487;-86
2023/11/25 02:36:58;;;;;;;4.83;1.53;;;;;;;;;;6209416;23;20421;-85
2023/11/25 02:39:45;;;;;;;9.63;2.10;;;;;;;;;;6209886;23;20469;-84
2023/11/25 02:42:21;;;;;;;8.63;1.97;;;;;;;;;;6211220;23;20456;-83
2023/11/25 02:44:53;;;;;;;3.20;1.77;;;;;;;;;;6212281;23;20416;-88
2023/11/25 02:47:33;;;;;;;4.80;1.83;;;;;;;;;;6215653;23;20427;-80
2023/11/25 02:50:07;;;;;;;4.97;1.73;;;;;;;;;;6225732;23;20425;-83
2023/11/25 02:52:37;;;;;;;5.40;2.00;;;;;;;;;;6214683;23;20405;-83
2023/11/25 02:55:15;;;;;;;6.23;2.40;;;;;;;;;;6214336;23;20468;-85
2023/11/25 02:57:48;;;;;;;4.00;1.67;;;;;;;;;;6219571;23;20536;-84
2023/11/25 03:05:53;;;;;;;3.90;1.70;;;;;;;;;;6219059;23;20527;-85
2023/11/25 03:08:27;;;;;;;6.10;2.23;;;;;;;;;;6215369;23;20441;-83
2023/11/25 03:10:56;;;;;;;7.27;1.73;;;;;;;;;;6216303;23;20463;-85
2023/11/25 03:13:36;;;;;;;5.80;1.90;;;;;;;;;;6218493;23;20409;-86
2023/11/25 03:16:24;;;;;;;5.53;1.93;;;;;;;;;;6218749;23;20416;-85
2023/11/25 03:18:57;;;;;;;3.20;1.50;;;;;;;;;;6219275;23;20449;-84
2023/11/25 03:21:43;;;;;;;5.97;2.00;;;;;;;;;;6219503;23;20378;-83
2023/11/25 03:24:23;;;;;;;5.80;1.67;;;;;;;;;;6216607;23;20413;-83
2023/11/25 03:26:57;;;;;;;4.03;1.90;;;;;;;;;;6211866;23;20397;-85
2023/11/25 03:29:35;;;;;;;6.83;1.90;;;;;;;;;;6210923;23;20448;-84
2023/11/25 03:32:19;;;;;;;5.10;1.43;;;;;;;;;;6212096;23;20771;-83
2023/11/25 03:34:53;;;;;;;4.10;1.63;;;;;;;;;;6212768;23;20420;-81
2023/11/25 03:37:29;;;;;;;12.97;3.53;;;;;;;;;;6210031;23;20504;-84
2023/11/25 03:39:59;;;;;;;7.53;1.80;;;;;;;;;;6215535;23;20511;-84
2023/11/25 03:42:43;;;;;;;6.57;1.97;;;;;;;;;;6210653;23;20440;-83
2023/11/25 03:45:14;;;;;;;7.90;1.97;;;;;;;;;;6212888;23;20397;-83
2023/11/25 03:47:45;;;;;;;3.80;1.67;;;;;;;;;;6209139;23;20479;-85
2023/11/25 03:50:17;;;;;;;4.10;2.13;;;;;;;;;;6210373;23;20409;-84
2023/11/25 03:52:45;;;;;;;6.60;1.60;;;;;;;;;;6208365;23;20420;-84
2023/11/25 03:55:15;;;;;;;3.27;1.73;;;;;;;;;;6210583;23;20420;-86
2023/11/25 03:57:52;;;;;;;7.47;1.80;;;;;;;;;;6213304;23;20440;-85
2023/11/25 04:00:22;;;;;;;6.20;2.03;;;;;;;;;;6213096;23;20531;-85
2023/11/25 04:02:51;;;;;;;5.67;1.53;;;;;;;;;;6216034;23;20478;-83
2023/11/25 04:05:24;;;;;;;8.40;1.70;;;;;;;;;;6219455;23;20508;-84
2023/11/25 04:07:52;;;;;;;1.80;0.97;;;;;;;;;;6232567;23;20421;-83
2023/11/25 04:10:24;;;;;;;5.67;1.93;;;;;;;;;;6217912;23;20413;-84
2023/11/25 04:12:53;;;;;;;5.90;1.37;;;;;;;;;;6228997;22;20417;-84
2023/11/25 04:15:23;;;;;;;6.17;1.97;;;;;;;;;;6232356;23;20443;-85
2023/11/25 04:17:54;;;;;;;5.13;1.77;;;;;;;;;;6229672;23;20449;-86
2023/11/25 04:20:33;;;;;;;4.13;1.70;;;;;;;;;;6217802;23;20448;-84
2023/11/25 04:23:07;;;;;;;6.50;2.40;;;;;;;;;;6212281;23;20409;-84
2023/11/25 04:25:45;;;;;;;6.53;1.93;;;;;;;;;;6210001;23;21054;-85
2023/11/25 04:28:35;;;;;;;9.00;1.50;;;;;;;;;;6208565;23;20764;-84
2023/11/25 04:31:07;;;;;;;7.80;1.60;;;;;;;;;;6209462;23;20409;-85
2023/11/25 04:33:39;;;;;;;6.53;2.03;;;;;;;;;;6210321;23;20470;-85
2023/11/25 04:36:14;;;;;;;5.63;1.40;;;;;;;;;;6210771;23;20464;-85
2023/11/25 04:38:59;;;;;;;7.03;2.37;;;;;;;;;;6211487;23;20444;-84
2023/11/25 04:41:29;;;;;;;4.90;1.63;;;;;;;;;;6217889;23;20408;-83
2023/11/25 04:43:56;;;;;;;4.53;1.30;;;;;;;;;;6219052;23;20439;-85
2023/11/25 04:46:33;;;;;;;7.90;2.63;;;;;;;;;;6218978;23;20404;-83
2023/11/25 04:49:14;;;;;;;5.13;1.50;;;;;;;;;;6215818;23;20443;-84
2023/11/25 04:51:51;;;;;;;6.83;2.00;;;;;;;;;;6210047;23;20456;-85
2023/11/25 04:54:25;;;;;;;5.00;1.60;;;;;;;;;;6210988;23;20420;-83
2023/11/25 04:56:57;;;;;;;10.63;2.13;;;;;;;;;;6213290;23;20400;-86
2023/11/25 04:59:25;;;;;;;5.20;2.07;;;;;;;;;;6214972;23;21220;-85
2023/11/25 05:01:52;;;;;;;6.20;2.03;;;;;;;;;;6213385;23;20882;-84
2023/11/25 05:04:24;;;;;;;6.47;1.87;;;;;;;;;;6211849;23;20405;-84
2023/11/25 05:06:53;;;;;;;13.40;2.20;;;;;;;;;;6216582;23;20497;-86
2023/11/25 05:09:26;;;;;;;5.13;1.50;;;;;;;;;;6213078;23;20440;-83
2023/11/25 05:12:01;;;;;;;8.63;2.00;;;;;;;;;;6209393;23;20449;-84
2023/11/25 05:14:31;;;;;;;8.93;1.90;;;;;;;;;;6209139;23;20921;-84
2023/11/25 05:17:00;;;;;;;9.23;1.83;;;;;;;;;;6209709;23;20472;-84
2023/11/25 05:19:31;;;;;;;6.97;1.90;;;;;;;;;;6208398;23;20445;-85
2023/11/25 05:22:01;;;;;;;5.10;1.83;;;;;;;;;;6209867;23;20409;-83
2023/11/25 05:24:28;;;;;;;6.93;1.73;;;;;;;;;;6209304;23;20471;-82
2023/11/25 05:26:59;;;;;;;6.50;1.50;;;;;;;;;;6209468;23;20501;-84
2023/11/25 05:29:31;;;;;;;4.30;1.80;;;;;;;;;;6205305;23;20804;-83
2023/11/25 05:32:13;;;;;;;5.87;1.70;;;;;;;;;;6210024;23;20405;-86
2023/11/25 05:34:50;;;;;;;3.50;2.00;;;;;;;;;;6210075;23;20746;-83
2023/11/25 05:37:19;;;;;;;15.60;2.47;;;;;;;;;;6206093;23;20411;-86
2023/11/25 05:39:55;;;;;;;9.03;2.20;;;;;;;;;;6206497;23;20480;-83
2023/11/25 05:42:27;;;;;;;4.77;1.50;;;;;;;;;;6205160;23;20425;-86
2023/11/25 05:44:55;;;;;;;9.97;3.00;;;;;;;;;;6222401;22;20390;-85
2023/11/25 05:47:24;;;;;;;5.17;1.60;;;;;;;;;;6229702;23;20472;-83
2023/11/25 05:49:54;;;;;;;11.50;2.40;;;;;;;;;;6232611;22;20408;-85
2023/11/25 05:52:24;;;;;;;7.47;1.80;;;;;;;;;;6233377;23;20444;-85
2023/11/25 05:54:55;;;;;;;6.93;1.30;;;;;;;;;;6233580;22;20397;-83
2023/11/25 05:57:22;;;;;;;6.57;1.80;;;;;;;;;;6233613;23;20429;-83
2023/11/25 05:59:57;;;;;;;4.97;1.97;;;;;;;;;;6225895;23;20519;-84
2023/11/25 06:02:24;;;;;;;10.77;2.10;;;;;;;;;;6213755;23;20924;-84
2023/11/25 06:04:54;;;;;;;10.57;2.40;;;;;;;;;;6211627;23;20423;-84
2023/11/25 06:07:24;;;;;;;7.17;1.40;;;;;;;;;;6213105;23;20398;-86
2023/11/25 06:09:57;;;;;;;8.23;1.53;;;;;;;;;;6211662;23;20739;-84
2023/11/25 06:12:26;;;;;;;5.90;2.10;;;;;;;;;;6208928;23;20466;-83
2023/11/25 06:15:01;;;;;;;7.13;1.87;;;;;;;;;;6209790;23;20433;-83
2023/11/25 06:17:29;;;;;;;12.17;1.93;;;;;;;;;;6208426;23;20416;-83
2023/11/25 06:19:59;;;;;;;4.00;1.63;;;;;;;;;;6211205;23;20477;-85
2023/11/25 06:22:27;;;;;;;8.00;1.73;;;;;;;;;;6209731;23;20411;-84
2023/11/25 06:25:00;;;;;;;8.53;1.43;;;;;;;;;;6209168;23;20409;-84
2023/11/25 06:27:30;;;;;;;10.80;2.03;;;;;;;;;;6210145;23;20507;-85
2023/11/25 06:30:00;;;;;;;6.40;2.00;;;;;;;;;;6210425;23;21118;-84
2023/11/25 06:32:28;;;;;;;4.50;1.60;;;;;;;;;;6209658;23;20405;-85
2023/11/25 06:34:58;;;;;;;4.77;1.90;;;;;;;;;;6210371;23;20421;-84
2023/11/25 06:37:42;;;;;;;5.73;1.97;;;;;;;;;;6221131;23;20409;-82
2023/11/25 06:40:15;;;;;;;8.27;1.93;;;;;;;;;;6223857;23;20469;-85
2023/11/25 06:42:43;;;;;;;2.67;1.03;;;;;;;;;;6225085;23;20409;-82
2023/11/25 06:45:18;;;;;;;7.17;1.97;;;;;;;;;;6225714;23;20483;-85
2023/11/25 06:47:50;;;;;;;3.13;1.40;;;;;;;;;;6225884;23;20413;-82
2023/11/25 06:50:20;;;;;;;5.70;1.67;;;;;;;;;;6216056;23;20903;-86
2023/11/25 06:52:47;;;;;;;10.60;2.60;;;;;;;;;;6217397;23;20404;-84
2023/11/25 06:55:25;;;;;;;7.57;1.83;;;;;;;;;;6220584;23;20541;-85
2023/11/25 06:58:03;;;;;;;7.23;2.87;;;;;;;;;;6231103;23;20620;-85
2023/11/25 07:00:30;;;;;;;10.30;2.30;;;;;;;;;;6227307;23;20931;-85
2023/11/25 07:03:00;;;;;;;9.00;2.10;;;;;;;;;;6211014;23;20472;-85
2023/11/25 07:05:27;;;;;;;8.33;1.80;;;;;;;;;;6208893;23;20417;-83
2023/11/25 07:08:03;;;;;;;10.90;2.10;;;;;;;;;;6207979;23;20432;-82
2023/11/25 07:10:53;;;;;;;10.90;2.27;;;;;;;;;;6210474;23;20526;-86
2023/11/25 07:13:32;;;;;;;4.97;2.33;;;;;;;;;;6212454;23;20409;-84
2023/11/25 07:16:04;;;;;;;6.30;2.70;;;;;;;;;;6209923;23;20431;-84
2023/11/25 07:18:32;;;;;;;11.00;3.27;;;;;;;;;;6210378;23;20439;-87
2023/11/25 07:21:07;;;;;;;10.63;2.27;;;;;;;;;;6218786;23;20853;-85
2023/11/25 07:23:41;;;;;;;9.83;2.03;;;;;;;;;;6222984;23;20393;-83
2023/11/25 07:26:17;;;;;;;7.00;2.67;;;;;;;;;;6209312;23;20411;-84
2023/11/25 07:28:48;;;;;;;7.70;1.97;;;;;;;;;;6208466;23;20743;-85
2023/11/25 07:31:24;;;;;;;6.60;1.57;;;;;;;;;;6209127;23;20500;-84
2023/11/25 07:33:57;;;;;;;5.17;1.63;;;;;;;;;;6209674;23;20405;-84
2023/11/25 07:36:27;;;;;;;4.53;1.93;;;;;;;;;;6209451;23;20445;-83
2023/11/25 07:38:54;;;;;;;6.70;2.57;;;;;;;;;;6210570;23;20902;-82
2023/11/25 07:41:25;;;;;;;6.40;1.93;;;;;;;;;;6208759;23;20416;-83
2023/11/25 07:44:06;;;;;;;7.57;1.97;;;;;;;;;;6208373;23;20484;-84
2023/11/25 07:46:35;;;;;;;4.97;1.80;;;;;;;;;;6212889;23;20486;-86
2023/11/25 07:49:03;;;;;;;7.17;1.63;;;;;;;;;;6213408;23;20433;-85
2023/11/25 07:51:34;;;;;;;6.67;1.40;;;;;;;;;;6209873;23;20436;-84
2023/11/25 07:54:05;;;;;;;6.03;2.07;;;;;;;;;;6217181;23;20433;-84
2023/11/25 07:56:38;;;;;;;8.17;2.47;;;;;;;;;;6214366;23;20417;-85
2023/11/25 07:59:17;;;;;;;4.80;1.47;;;;;;;;;;6212976;23;20471;-83
2023/11/25 08:01:59;;;;;;;7.87;2.47;;;;;;;;;;6210572;23;20411;-83
2023/11/25 08:04:34;;;;;;;5.43;2.00;;;;;;;;;;6214416;23;20416;-85
2023/11/25 08:07:02;;;;;;;4.20;1.40;;;;;;;;;;6213725;23;20413;-84
2023/11/25 08:09:34;;;;;;;10.93;1.83;;;;;;;;;;6211178;23;20576;-86
2023/11/25 08:12:07;;;;;;;5.80;1.87;;;;;;;;;;6213413;23;20431;-84
2023/11/25 08:14:47;;;;;;;7.30;2.43;;;;;;;;;;6210022;23;20412;-85
2023/11/25 08:17:20;;;;;;;2.80;1.80;;;;;;;;;;6223875;23;20397;-85
2023/11/25 08:19:51;;;;;;;4.30;1.57;;;;;;;;;;6226562;22;20449;-88
2023/11/25 08:22:21;;;;;;;2.77;1.37;;;;;;;;;;6212914;23;20413;-83
2023/11/25 08:24:48;;;;;;;4.40;1.40;;;;;;;;;;6212191;23;20413;-85
2023/11/25 08:27:30;;;;;;;3.90;1.40;;;;;;;;;;6206364;23;20405;-84
2023/11/25 08:30:01;;;;;;;2.70;1.47;;;;;;;;;;6208478;23;20425;-84
2023/11/25 08:32:31;;;;;;;4.63;1.30;;;;;;;;;;6210072;23;20875;-85
2023/11/25 08:35:05;;;;;;;4.60;2.00;;;;;;;;;;6213009;23;20417;-84
2023/11/25 08:37:42;;;;;;;7.97;2.20;;;;;;;;;;6203508;23;20414;-83
2023/11/25 08:40:21;;;;;;;7.43;1.60;;;;;;;;;;6210378;23;20524;-85
2023/11/25 08:42:56;;;;;;;6.63;2.10;;;;;;;;;;6209687;23;20409;-84
2023/11/25 08:45:28;;;;;;;3.70;1.83;;;;;;;;;;6209075;23;20495;-85
2023/11/25 08:48:10;;;;;;;5.33;1.70;;;;;;;;;;6207769;23;20429;-84
2023/11/25 08:50:39;;;;;;;6.23;1.60;;;;;;;;;;6209149;23;20427;-83
2023/11/25 08:53:16;;;;;;;6.23;1.20;;;;;;;;;;6211582;23;20432;-85
2023/11/25 08:59:19;;;;;;;3.50;1.30;;;;;;;;;;6196725;23;20432;-85
2023/11/25 09:02:21;;;;;;;3.70;1.30;;;;;;;;;;6207450;23;20397;-85
2023/11/25 09:05:40;;;;;;;4.50;1.80;;;;;;;;;;6216865;23;20385;-83
2023/11/25 09:08:27;;;;;;;2.30;1.27;;;;;;;;;;6207885;23;20433;-85
2023/11/25 09:11:40;;;;;;;5.20;1.40;;;;;;;;;;6127725;23;20662;-86
2023/11/25 09:14:16;;;;;;;7.90;2.00;;;;;;;;;;6126562;23;20469;-85
2023/11/25 09:20:28;;;;;;;5.60;1.90;;;;;;;;;;6121825;23;20446;-84
2023/11/25 09:23:11;;;;;;;4.17;1.20;;;;;;;;;;6123822;23;20937;-85
2023/11/25 09:25:58;;;;;;;3.83;1.83;;;;;;;;;;6124461;23;20418;-83
2023/11/25 09:28:41;;;;;;;5.87;2.40;;;;;;;;;;6126608;23;20426;-84
2023/11/25 09:31:19;;;;;;;5.87;1.93;;;;;;;;;;6124456;23;20505;-84
2023/11/25 09:34:32;;;;;;;7.13;1.63;;;;;;;;;;6124337;23;20398;-83
2023/11/25 09:37:01;;;;;;;5.53;1.57;;;;;;;;;;6146130;23;20417;-82
2023/11/25 09:39:34;;;;;;;4.80;1.20;;;;;;;;;;6124487;23;20443;-84
2023/11/25 09:42:20;;;;;;;6.47;1.50;;;;;;;;;;6199496;23;20443;-87
2023/11/25 09:45:35;;;;;;;11.47;1.97;;;;;;;;;;6231214;22;20417;-86
2023/11/25 09:48:28;;;;;;;7.23;1.80;;;;;;;;;;6216903;23;20428;-86
2023/11/25 09:51:23;;;;;;;4.93;3.57;;;;;;;;;;6207832;23;20409;-86
2023/11/25 09:54:18;;;;;;;4.77;1.70;;;;;;;;;;6214951;23;20508;-85
2023/11/25 09:57:14;;;;;;;5.90;1.80;;;;;;;;;;6226302;23;20388;-83
2023/11/25 09:59:59;;;;;;;6.43;2.00;;;;;;;;;;6223098;23;20534;-84
2023/11/25 10:02:55;;;;;;;3.03;1.97;;;;;;;;;;6208425;23;20416;-84
2023/11/25 10:06:19;;;;;;;2.30;1.47;;;;;;;;;;6138172;23;20397;-85
2023/11/25 10:09:14;;;;;;;7.40;2.30;;;;;;;;;;6197708;23;20425;-86
2023/11/25 10:12:33;;;;;;;;;;;;;;;;;;;;;
2023/11/25 10:15:14;;;;;;;5.63;2.47;;;;;;;;;;6108365;23;20421;-87
2023/11/25 10:18:10;;;;;;;;;;;;;;;;;;;;;
2023/11/25 10:21:17;;;;;;;3.70;1.77;;;;;;;;;;6107141;23;20449;-83
2023/11/25 10:24:19;;;;;;;;;;;;;;;;;;;;;
2023/11/25 10:27:23;;;;;;;5.40;2.30;;;;;;;;;;6104131;23;20432;-83
2023/11/25 10:30:23;;;;;;;3.17;1.70;;;;;;;;;;6095637;23;20445;-85
2023/11/25 10:33:24;;;;;;;9.23;2.20;;;;;;;;;;6073730;23;20424;-83
2023/11/25 10:36:12;;;;;;;6.03;3.10;;;;;;;;;;6094973;23;20408;-85
2023/11/25 10:39:01;;;;;;;6.40;2.20;;;;;;;;;;6089685;23;20584;-86
2023/11/25 10:41:53;;;;;;;5.50;2.13;;;;;;;;;;6093169;23;20524;-84
2023/11/25 10:44:23;;;;;;;2.83;2.03;;;;;;;;;;6091768;23;20479;-84
2023/11/25 10:47:08;;;;;;;6.17;1.90;;;;;;;;;;6095002;23;20404;-85
2023/11/25 10:50:17;;;;;;;4.83;1.50;;;;;;;;;;6094602;23;20396;-85
2023/11/25 10:52:57;;;;;;;2.97;1.50;;;;;;;;;;6092423;23;20464;-84
2023/11/25 10:55:38;;;;;;;3.63;2.00;;;;;;;;;;6115196;23;20420;-85
2023/11/25 10:58:35;;;;;;;3.90;2.10;;;;;;;;;;6205426;23;20510;-86
2023/11/25 11:01:20;;;;;;;5.90;1.50;;;;;;;;;;6232651;23;20488;-84
2023/11/25 11:03:49;;;;;;;2.60;2.13;;;;;;;;;;6222839;23;20405;-83
2023/11/25 11:06:59;;;;;;;4.57;1.77;;;;;;;;;;6221842;23;20557;-83
2023/11/25 11:09:46;;;;;;;4.30;1.63;;;;;;;;;;6189749;23;20483;-86
2023/11/25 11:12:36;;;;;;;4.07;1.60;;;;;;;;;;6214771;23;20416;-84
2023/11/25 11:15:24;;;;;;;2.40;1.10;;;;;;;;;;6213378;23;20429;-84
2023/11/25 11:18:13;;;;;;;1.77;1.30;;;;;;;;;;6219024;23;20433;-85
2023/11/25 11:21:01;;;;;;;4.27;1.77;;;;;;;;;;6223783;23;20455;-84
2023/11/25 11:27:28;;;;;;;3.47;1.80;;;;;;;;;;6213298;23;20443;-83
2023/11/25 11:30:32;;;;;;;3.60;1.07;;;;;;;;;;6215369;23;20416;-87
2023/11/25 11:33:18;;;;;;;3.50;1.43;;;;;;;;;;6216703;23;20504;-86
2023/11/25 11:36:15;;;;;;;2.50;1.77;;;;;;;;;;6229069;22;20427;-85
2023/11/25 11:38:52;;;;;;;2.27;2.07;;;;;;;;;;6231568;23;20421;-84
2023/11/25 11:41:38;;;;;;;3.03;1.40;;;;;;;;;;6230280;23;20441;-84
2023/11/25 11:44:17;;;;;;;2.80;1.73;;;;;;;;;;6225977;23;20799;-85
2023/11/25 11:46:53;;;;;;;2.20;1.50;;;;;;;;;;6225005;23;20400;-86
2023/11/25 11:49:40;;;;;;;8.90;2.00;;;;;;;;;;6225990;23;20433;-86
2023/11/25 11:52:31;;;;;;;3.47;1.50;;;;;;;;;;6225597;23;20439;-86
2023/11/25 11:55:35;;;;;;;6.07;1.70;;;;;;;;;;6224801;23;20429;-85
2023/11/25 11:58:41;;;;;;;3.83;1.70;;;;;;;;;;6213976;23;20494;-86
2023/11/25 12:02:15;;;;;;;2.60;1.50;;;;;;;;;;6238039;23;20452;-87
2023/11/25 12:04:49;;;;;;;3.23;1.60;;;;;;;;;;6215003;23;20416;-85
2023/11/25 12:07:30;;;;;;;6.80;2.20;;;;;;;;;;6217672;23;20409;-84
2023/11/25 12:10:01;;;;;;;3.27;2.33;;;;;;;;;;6221683;23;20389;-86
2023/11/25 12:12:58;;;;;;;;;;;;;;;;;;;;;
2023/11/25 12:15:52;;;;;;;7.07;2.33;;;;;;;;;;6218780;23;20406;-85
2023/11/25 12:18:19;;;;;;;3.17;1.70;;;;;;;;;;6213873;23;20433;-82
2023/11/25 12:23:47;;;;;;;7.23;2.37;;;;;;;;;;6222179;23;20484;-83
2023/11/25 12:26:31;;;;;;;1.60;1.50;;;;;;;;;;6231545;23;20421;-83
2023/11/25 12:29:11;;;;;;;;;;;;;;;;;;;;;
2023/11/25 12:31:51;;;;;;;5.80;2.23;;;;;;;;;;6235963;23;20419;-85
2023/11/25 12:34:47;;;;;;;;;;;;;;;;;;;;;
2023/11/25 12:37:34;;;;;;;1.60;1.03;;;;;;;;;;6235962;23;20423;-83
2023/11/25 12:40:18;;;;;;;2.83;1.10;;;;;;;;;;6220155;23;20409;-84
2023/11/25 12:42:52;;;;;;;3.50;1.20;;;;;;;;;;6211382;23;20459;-84
2023/11/25 12:45:51;;;;;;;5.40;2.00;;;;;;;;;;6212090;23;20405;-83
2023/11/25 12:48:32;;;;;;;2.30;2.10;;;;;;;;;;6211740;23;20436;-83
2023/11/25 12:51:10;;;;;;;4.50;2.40;;;;;;;;;;6212898;23;20424;-84
2023/11/25 12:54:11;;;;;;;9.53;2.40;;;;;;;;;;6213798;23;20411;-83
2023/11/25 12:56:57;;;;;;;4.33;2.00;;;;;;;;;;6212658;23;20428;-84
2023/11/25 12:59:56;;;;;;;2.30;1.00;;;;;;;;;;6212100;23;20977;-84
2023/11/25 13:02:35;;;;;;;6.10;2.40;;;;;;;;;;6213586;23;20471;-85
2023/11/25 13:05:23;;;;;;;3.90;1.60;;;;;;;;;;6213029;23;20404;-84
2023/11/25 13:08:21;;;;;;;6.47;2.30;;;;;;;;;;6210830;23;20503;-83
2023/11/25 13:10:58;;;;;;;6.10;1.73;;;;;;;;;;6209036;23;20416;-84
2023/11/25 13:13:44;;;;;;;3.13;1.70;;;;;;;;;;6212226;23;20416;-82
2023/11/25 13:16:22;;;;;;;3.80;2.60;;;;;;;;;;6213522;23;20412;-85
2023/11/25 13:19:25;;;;;;;;;;;;;;;;;;;;;
2023/11/25 13:22:19;;;;;;;4.10;1.53;;;;;;;;;;6213161;23;20441;-86
2023/11/25 13:29:01;;;;;;;;;;;;;;;;;;;;;
2023/11/25 13:31:59;;;;;;;4.40;1.30;;;;;;;;;;6212020;23;20431;-85
2023/11/25 13:35:02;;;;;;;5.90;1.60;;;;;;;;;;6211697;23;20405;-85
2023/11/25 13:37:42;;;;;;;4.03;1.47;;;;;;;;;;6212106;23;20814;-84
2023/11/25 13:40:39;;;;;;;3.17;1.97;;;;;;;;;;6210818;23;20417;-84
2023/11/25 13:43:24;;;;;;;7.50;2.30;;;;;;;;;;6213320;23;20420;-87
2023/11/25 13:46:16;;;;;;;4.40;1.93;;;;;;;;;;6211230;23;20871;-87
2023/11/25 13:52:09;;;;;;;5.13;1.40;;;;;;;;;;6222188;23;20439;-85
2023/11/25 13:55:16;;;;;;;5.50;2.10;;;;;;;;;;6183871;23;20413;-85
2023/11/25 13:57:57;;;;;;;3.73;1.50;;;;;;;;;;6213351;23;20447;-87
2023/11/25 14:00:42;;;;;;;4.57;2.00;;;;;;;;;;6211557;23;20412;-84
2023/11/25 14:03:16;;;;;;;4.83;1.90;;;;;;;;;;6210532;23;20412;-84
2023/11/25 14:05:56;;;;;;;6.43;1.73;;;;;;;;;;6211805;23;20415;-85
2023/11/25 14:08:30;;;;;;;7.93;3.10;;;;;;;;;;6212295;23;20425;-86
2023/11/25 14:11:08;;;;;;;5.00;3.30;;;;;;;;;;6209990;23;20420;-85
2023/11/25 14:13:51;;;;;;;5.33;1.80;;;;;;;;;;6185264;23;20567;-85
2023/11/25 14:16:20;;;;;;;3.07;1.70;;;;;;;;;;6211615;23;20394;-85
2023/11/25 14:19:14;;;;;;;6.67;2.17;;;;;;;;;;6200381;23;20445;-87
2023/11/25 14:22:15;;;;;;;6.80;2.13;;;;;;;;;;6211079;23;20527;-85
2023/11/25 14:24:48;;;;;;;5.17;1.90;;;;;;;;;;6214127;23;20548;-86
2023/11/25 14:27:16;;;;;;;4.77;2.07;;;;;;;;;;6213342;23;20508;-87
2023/11/25 14:30:04;;;;;;;4.97;1.70;;;;;;;;;;6227932;23;20417;-85
2023/11/25 14:33:03;;;;;;;6.77;2.80;;;;;;;;;;6229113;23;20417;-84
2023/11/25 14:35:36;;;;;;;6.37;1.50;;;;;;;;;;6230413;23;20413;-85
2023/11/25 14:38:41;;;;;;;4.73;2.20;;;;;;;;;;6207664;23;20476;-85
2023/11/25 14:41:15;;;;;;;9.57;2.70;;;;;;;;;;6212229;23;20437;-86
2023/11/25 14:43:53;;;;;;;6.20;2.07;;;;;;;;;;6213076;23;20475;-87
2023/11/25 14:46:41;;;;;;;11.30;2.47;;;;;;;;;;6211462;23;21059;-85
2023/11/25 14:49:31;;;;;;;3.43;1.80;;;;;;;;;;6160705;23;20417;-87
2023/11/25 14:52:17;;;;;;;4.03;2.00;;;;;;;;;;6160938;23;20443;-86
2023/11/25 14:55:00;;;;;;;8.67;2.13;;;;;;;;;;6159502;23;20413;-85
2023/11/25 14:57:37;;;;;;;5.83;3.13;;;;;;;;;;6181428;23;20520;-86
2023/11/25 15:00:29;;;;;;;8.47;1.80;;;;;;;;;;6178573;23;20414;-87
2023/11/25 15:03:19;;;;;;;3.30;1.40;;;;;;;;;;6159890;23;20855;-85
2023/11/25 15:05:53;;;;;;;4.93;1.43;;;;;;;;;;6159950;23;20542;-86
2023/11/25 15:08:25;;;;;;;3.17;0.93;;;;;;;;;;6164816;23;20422;-85
2023/11/25 15:11:18;;;;;;;2.30;1.40;;;;;;;;;;6174156;23;20402;-86
2023/11/25 15:17:17;;;;;;;4.10;2.53;;;;;;;;;;6162915;23;20389;-86
2023/11/25 15:20:01;;;;;;;3.47;1.90;;;;;;;;;;6166295;23;20433;-84
2023/11/25 15:22:44;;;;;;;9.27;3.40;;;;;;;;;;6161280;23;20457;-86
2023/11/25 15:25:34;;;;;;;3.80;1.30;;;;;;;;;;6170898;23;20394;-86
2023/11/25 15:28:38;;;;;;;6.00;2.13;;;;;;;;;;6217888;23;20421;-88
2023/11/25 15:31:16;;;;;;;9.43;3.03;;;;;;;;;;6220442;23;20420;-87
2023/11/25 15:33:52;;;;;;;3.63;1.50;;;;;;;;;;6219438;23;20771;-87
2023/11/25 15:39:36;;;;;;;2.30;1.23;;;;;;;;;;6211743;23;20869;-85
2023/11/25 15:42:18;;;;;;;2.73;1.10;;;;;;;;;;6216629;23;20536;-85
2023/11/25 15:44:54;;;;;;;1.33;1.10;;;;;;;;;;6187413;23;20408;-85
2023/11/25 15:47:45;;;;;;;2.40;1.43;;;;;;;;;;6200945;23;20423;-85
2023/11/25 15:50:31;;;;;;;2.23;1.50;;;;;;;;;;6215704;23;20419;-84
2023/11/25 15:53:04;;;;;;;6.53;2.27;;;;;;;;;;6218037;23;20403;-86
2023/11/25 15:55:37;;;;;;;4.10;1.93;;;;;;;;;;6218372;23;20536;-85
2023/11/25 15:58:12;;;;;;;4.63;1.60;;;;;;;;;;6216543;23;20431;-84
2023/11/25 16:00:53;;;;;;;4.07;2.00;;;;;;;;;;6215954;23;20405;-88
2023/11/25 16:03:31;;;;;;;3.10;2.07;;;;;;;;;;6216099;23;20428;-86
2023/11/25 16:06:13;;;;;;;1.57;1.07;;;;;;;;;;6217794;23;20377;-87
2023/11/25 16:08:47;;;;;;;5.43;1.40;;;;;;;;;;6214694;23;20435;-87
2023/11/25 16:11:33;;;;;;;;;;;;;;;;;;;;;
2023/11/25 16:14:22;;;;;;;2.00;1.37;;;;;;;;;;6215855;23;20417;-86
2023/11/25 16:17:00;;;;;;;2.87;1.80;;;;;;;;;;6213020;23;20432;-85
2023/11/25 16:19:52;;;;;;;4.47;1.57;;;;;;;;;;6217543;23;20436;-86
2023/11/25 16:22:29;;;;;;;3.37;2.10;;;;;;;;;;6211886;23;20856;-88
2023/11/25 16:25:30;;;;;;;3.93;2.10;;;;;;;;;;6213909;23;20368;-86
2023/11/25 16:28:16;;;;;;;1.97;1.47;;;;;;;;;;6202089;23;20427;-85
2023/11/25 16:31:41;;;;;;;7.70;3.00;;;;;;;;;;5054328;28;20587;-86
2023/11/25 16:34:46;;;;;;;6.07;2.53;;;;;;;;;;5045068;28;21868;-86
2023/11/25 16:41:42;;;;;;;5.40;2.40;;;;;;;;;;5046959;28;20514;-86
2023/11/25 16:44:25;;;;;;;6.13;2.10;;;;;;;;;;5041011;28;21517;-88